Adak, Alaska
Current Conditions -  °F | °C
As of 10:16 PM on Thursday 27 Nov 2014 (Local Time) from PADK Reporting Station
Overcast Overcast  
Wind Chill: 37°   Ceiling: 3100
Heat Index: 37°   Visibility: 10mi
Dew Point: 28°   Wind: 3mph
Humidity: 70%   Direction: 280°W
Pressure: 29.94"   Gusts: NA
Location:  51.88°N, 176.66°W
Report Text: PADK 280816Z AUTO 28003KT 10SM BKN031 OVC038 03/M02 A2994 RMK AO1
Loading
Personal Weather Stations






























Interactive Weather Map New forecast layout! Learn more

10-Day Weather Forecast

Advertisements
Track Severe Weather on mobile